Time;durP1;ratioP1;P1;durP2;ratioP2;P2;SDS_P1;SDS_P2;PMS_P1;PMS_P2;Temp;Humidity;BMP_temperature;BMP_pressure;BME280_temperature;BME280_humidity;BME280_pressure;Samples;Min_cycle;Max_cycle;Signal;HPM_P1;HPM_P2
2021/06/24 00:00:05;;;;;;;23.65;21.15;;;15.90;99.90;;;;;;4961430;28;20041;-81
2021/06/24 00:02:34;;;;;;;25.60;21.25;;;15.90;99.90;;;;;;4995995;28;20049;-80
2021/06/24 00:05:00;;;;;;;24.83;20.85;;;15.90;99.90;;;;;;4993355;28;20477;-79
2021/06/24 00:07:28;;;;;;;23.10;20.92;;;15.80;99.90;;;;;;4980957;28;20145;-80
2021/06/24 00:09:54;;;;;;;23.50;21.13;;;15.80;99.90;;;;;;4980842;28;20054;-80
2021/06/24 00:12:22;;;;;;;24.40;20.70;;;15.80;99.90;;;;;;4964499;28;20136;-78
2021/06/24 00:14:49;;;;;;;25.02;21.50;;;15.90;99.90;;;;;;4987235;28;20063;-81
2021/06/24 00:17:16;;;;;;;27.65;20.90;;;15.80;99.90;;;;;;5021140;28;20109;-78
2021/06/24 00:19:43;;;;;;;22.52;20.42;;;15.80;99.90;;;;;;5028279;28;20045;-82
2021/06/24 00:22:10;;;;;;;25.48;21.13;;;15.80;99.90;;;;;;5009511;28;20093;-81
2021/06/24 00:24:37;;;;;;;24.73;21.50;;;15.70;99.90;;;;;;5005010;28;20038;-79
2021/06/24 00:27:04;;;;;;;23.92;21.33;;;15.80;99.90;;;;;;4957964;28;20058;-78
2021/06/24 00:29:30;;;;;;;26.70;21.02;;;15.90;99.90;;;;;;4988962;28;20101;-81
2021/06/24 00:32:00;;;;;;;23.15;20.70;;;15.80;99.90;;;;;;5009839;28;20049;-81
2021/06/24 00:34:27;;;;;;;22.42;19.58;;;15.80;99.90;;;;;;4996156;28;20107;-81
2021/06/24 00:36:54;;;;;;;22.83;20.42;;;15.80;99.90;;;;;;4997642;28;20041;-79
2021/06/24 00:39:20;;;;;;;22.38;19.58;;;15.90;99.90;;;;;;4982767;28;20058;-79
2021/06/24 00:41:50;;;;;;;22.48;20.27;;;15.80;99.90;;;;;;4997206;28;20080;-80
2021/06/24 00:44:17;;;;;;;24.55;19.95;;;15.80;99.90;;;;;;5013413;28;20046;-79
2021/06/24 00:46:44;;;;;;;27.15;18.20;;;15.60;99.90;;;;;;4970630;28;20102;-79
2021/06/24 00:49:12;;;;;;;23.48;19.20;;;15.50;99.90;;;;;;4992263;28;20402;-80
2021/06/24 00:51:39;;;;;;;28.88;19.85;;;15.50;99.90;;;;;;5002879;28;20073;-80
2021/06/24 00:54:06;;;;;;;20.77;18.08;;;15.50;99.90;;;;;;5030177;28;20042;-82
2021/06/24 00:56:34;;;;;;;21.50;18.83;;;15.50;99.90;;;;;;4978202;28;20051;-82
2021/06/24 00:59:02;;;;;;;23.27;19.33;;;15.50;99.90;;;;;;4982851;28;20153;-80
2021/06/24 01:01:31;;;;;;;21.83;18.13;;;15.50;99.90;;;;;;4976693;28;20055;-78
2021/06/24 01:03:59;;;;;;;27.50;19.33;;;15.40;99.90;;;;;;4977197;28;20054;-80
2021/06/24 01:06:27;;;;;;;21.60;17.55;;;15.40;99.90;;;;;;4959257;28;20120;-80
2021/06/24 01:08:54;;;;;;;23.33;18.73;;;15.40;99.90;;;;;;4968164;28;20137;-80
2021/06/24 01:11:22;;;;;;;20.98;18.25;;;15.20;99.90;;;;;;4965817;28;20046;-81
2021/06/24 01:13:50;;;;;;;22.90;18.27;;;15.10;99.90;;;;;;4965970;28;20046;-80
2021/06/24 01:16:17;;;;;;;23.08;17.35;;;15.10;99.90;;;;;;4963228;28;20053;-79
2021/06/24 01:18:45;;;;;;;24.80;17.05;;;15.20;99.90;;;;;;5014650;28;20137;-80
2021/06/24 01:21:13;;;;;;;29.23;17.75;;;15.20;99.90;;;;;;5010115;28;20025;-80
2021/06/24 01:23:42;;;;;;;27.45;17.83;;;15.10;99.90;;;;;;5001652;28;20030;-78
2021/06/24 01:26:13;;;;;;;26.77;18.95;;;15.20;99.90;;;;;;4989234;28;20068;-81
2021/06/24 01:28:41;;;;;;;22.25;17.08;;;15.30;99.90;;;;;;5018549;28;20060;-79
2021/06/24 01:31:08;;;;;;;20.20;17.88;;;15.40;99.90;;;;;;5017538;28;20050;-78
2021/06/24 01:33:36;;;;;;;21.67;17.67;;;15.30;99.90;;;;;;5007110;28;20057;-81
2021/06/24 01:36:05;;;;;;;25.70;17.70;;;15.20;99.90;;;;;;5006282;28;20072;-79
2021/06/24 01:38:37;;;;;;;28.50;18.27;;;15.20;99.90;;;;;;5002221;28;20057;-79
2021/06/24 01:41:11;;;;;;;22.20;17.67;;;15.10;99.90;;;;;;4999670;28;20042;-79
2021/06/24 01:43:39;;;;;;;20.38;16.77;;;15.20;99.90;;;;;;4998717;28;20073;-80
2021/06/24 01:46:06;;;;;;;25.58;17.45;;;15.20;99.90;;;;;;4981476;28;20433;-79
2021/06/24 01:48:33;;;;;;;31.63;18.65;;;15.20;99.90;;;;;;4973495;28;20065;-79
2021/06/24 01:51:03;;;;;;;20.92;18.73;;;15.20;99.90;;;;;;4982909;28;20183;-81
2021/06/24 01:53:31;;;;;;;23.20;17.63;;;15.20;99.90;;;;;;5006196;28;20053;-80
2021/06/24 01:55:59;;;;;;;21.75;16.90;;;15.20;99.90;;;;;;4979297;28;20138;-82
2021/06/24 01:58:28;;;;;;;24.45;18.65;;;15.20;99.90;;;;;;5011703;28;20064;-80
2021/06/24 02:01:14;;;;;;;23.83;18.70;;;15.20;99.90;;;;;;4985707;28;20621;-78
2021/06/24 02:03:48;;;;;;;25.17;16.95;;;15.20;99.90;;;;;;4994876;28;20552;-79
2021/06/24 02:06:16;;;;;;;21.90;17.63;;;15.20;99.90;;;;;;4977818;28;20559;-80
2021/06/24 02:08:43;;;;;;;24.75;17.00;;;15.30;99.90;;;;;;4979499;28;20046;-81
2021/06/24 02:11:16;;;;;;;22.83;17.27;;;15.30;99.90;;;;;;4978488;28;20588;-78
2021/06/24 02:13:46;;;;;;;21.42;17.65;;;15.10;99.90;;;;;;4962642;28;20053;-81
2021/06/24 02:16:14;;;;;;;23.88;17.58;;;15.00;99.90;;;;;;4996383;28;20050;-80
2021/06/24 02:18:43;;;;;;;23.60;17.50;;;14.80;99.90;;;;;;4995957;28;20104;-82
2021/06/24 02:21:15;;;;;;;26.15;17.42;;;14.80;99.90;;;;;;5001762;28;20497;-80
2021/06/24 02:23:47;;;;;;;24.88;17.15;;;14.80;99.90;;;;;;4963739;28;20037;-77
2021/06/24 02:26:24;;;;;;;27.08;17.40;;;14.70;99.90;;;;;;4963301;28;20195;-80
2021/06/24 02:29:20;;;;;;;23.33;15.95;;;14.80;99.90;;;;;;4989528;28;20637;-80
2021/06/24 02:31:49;;;;;;;26.88;16.38;;;14.80;99.90;;;;;;4974453;28;20054;-80
2021/06/24 02:34:35;;;;;;;29.85;18.00;;;14.90;99.90;;;;;;4975536;28;20054;-81
2021/06/24 02:37:06;;;;;;;27.95;16.17;;;14.80;99.90;;;;;;4943142;28;20129;-80
2021/06/24 02:39:59;;;;;;;20.80;15.73;;;14.80;99.90;;;;;;4972721;28;20792;-81
2021/06/24 02:42:31;;;;;;;28.10;16.15;;;14.90;99.90;;;;;;4961110;28;20069;-80
2021/06/24 02:44:59;;;;;;;24.33;16.25;;;14.80;99.90;;;;;;4979639;28;20073;-82
2021/06/24 02:47:26;;;;;;;20.25;16.17;;;14.80;99.90;;;;;;5010282;28;20484;-81
2021/06/24 02:49:54;;;;;;;21.65;15.20;;;14.80;99.90;;;;;;4965909;28;20046;-79
2021/06/24 02:52:22;;;;;;;26.23;16.73;;;14.70;99.90;;;;;;5022058;28;20042;-81
2021/06/24 02:54:51;;;;;;;22.95;16.80;;;14.70;99.90;;;;;;4976734;28;20052;-80
2021/06/24 02:57:28;;;;;;;19.98;16.52;;;14.70;99.90;;;;;;4985765;28;20045;-80
2021/06/24 03:00:19;;;;;;;25.48;16.67;;;14.80;99.90;;;;;;4950341;28;20073;-80
2021/06/24 03:03:03;;;;;;;25.55;17.55;;;14.80;99.90;;;;;;4963331;28;20045;-80
2021/06/24 03:05:30;;;;;;;26.88;15.52;;;14.70;99.90;;;;;;4978496;28;20042;-80
2021/06/24 03:07:58;;;;;;;27.55;16.30;;;14.60;99.90;;;;;;4977702;28;20081;-79
2021/06/24 03:10:43;;;;;;;26.65;16.90;;;14.80;99.90;;;;;;4980127;28;20127;-79
2021/06/24 03:13:12;;;;;;;22.63;16.30;;;14.70;99.90;;;;;;4985440;28;20064;-80
2021/06/24 03:15:39;;;;;;;28.38;16.55;;;14.60;99.90;;;;;;5006356;28;20110;-82
2021/06/24 03:18:06;;;;;;;24.05;16.92;;;14.60;99.90;;;;;;4991252;28;20033;-78
2021/06/24 03:20:34;;;;;;;28.58;16.20;;;14.70;99.90;;;;;;4986091;28;20026;-81
2021/06/24 03:23:01;;;;;;;21.80;17.05;;;14.70;99.90;;;;;;4991169;28;20094;-80
2021/06/24 03:25:29;;;;;;;23.35;16.23;;;14.70;99.90;;;;;;4941964;28;20049;-80
2021/06/24 03:27:58;;;;;;;21.90;16.95;;;14.60;99.90;;;;;;4942050;28;20053;-79
2021/06/24 03:30:36;;;;;;;28.73;16.50;;;14.70;99.90;;;;;;4988277;28;20046;-80
2021/06/24 03:33:05;;;;;;;26.42;17.83;;;14.80;99.90;;;;;;4974960;28;20058;-81
2021/06/24 03:35:32;;;;;;;27.05;18.13;;;14.90;99.90;;;;;;4976540;28;20052;-79
2021/06/24 03:37:59;;;;;;;22.58;16.63;;;14.90;99.90;;;;;;4993447;28;20053;-79
2021/06/24 03:40:27;;;;;;;19.77;15.57;;;14.80;99.90;;;;;;4958693;28;20056;-80
2021/06/24 03:43:01;;;;;;;28.00;16.58;;;14.70;99.90;;;;;;4978207;28;20052;-80
2021/06/24 03:45:28;;;;;;;23.13;15.98;;;14.60;99.90;;;;;;4979166;28;20046;-81
2021/06/24 03:47:56;;;;;;;21.08;15.88;;;14.70;99.90;;;;;;4975008;28;20054;-81
2021/06/24 03:50:24;;;;;;;17.55;15.07;;;14.70;99.90;;;;;;4981328;28;20543;-81
2021/06/24 03:52:51;;;;;;;25.60;15.68;;;14.70;99.90;;;;;;5008793;28;20545;-81
2021/06/24 03:55:35;;;;;;;22.55;14.82;;;14.70;99.90;;;;;;4992066;28;20084;-80
2021/06/24 03:58:08;;;;;;;26.63;15.85;;;14.60;99.90;;;;;;4991489;28;20045;-80
2021/06/24 04:00:40;;;;;;;25.00;14.85;;;14.60;99.90;;;;;;4975211;28;20081;-83
2021/06/24 04:03:13;;;;;;;24.40;15.43;;;14.60;99.90;;;;;;4956631;28;20046;-79
2021/06/24 04:05:52;;;;;;;20.80;14.95;;;14.60;99.90;;;;;;4988125;28;20457;-80
2021/06/24 04:08:20;;;;;;;24.05;15.13;;;14.60;99.90;;;;;;4976609;28;20073;-80
2021/06/24 04:11:04;;;;;;;23.13;15.32;;;14.60;99.90;;;;;;4974369;28;20043;-81
2021/06/24 04:13:37;;;;;;;18.92;14.38;;;14.80;99.90;;;;;;4940566;28;20057;-80
2021/06/24 04:16:18;;;;;;;24.08;15.18;;;14.80;99.90;;;;;;4940344;28;20050;-79
2021/06/24 04:18:46;;;;;;;25.08;14.88;;;14.80;99.90;;;;;;4982544;28;20184;-80
2021/06/24 04:21:13;;;;;;;26.45;15.65;;;14.80;99.90;;;;;;4971662;28;20060;-80
2021/06/24 04:23:40;;;;;;;20.00;14.63;;;14.70;99.90;;;;;;4970409;28;20042;-80
2021/06/24 04:26:11;;;;;;;27.73;15.38;;;14.90;99.90;;;;;;4987515;28;20046;-79
2021/06/24 04:28:38;;;;;;;21.42;14.70;;;15.00;99.90;;;;;;4993180;28;20085;-80
2021/06/24 04:31:10;;;;;;;22.70;15.05;;;15.00;99.90;;;;;;4991811;28;20104;-80
2021/06/24 04:33:37;;;;;;;21.27;16.02;;;15.00;99.90;;;;;;4978452;28;20516;-80
2021/06/24 04:36:23;;;;;;;20.60;15.45;;;15.00;99.90;;;;;;4996430;28;20210;-80
2021/06/24 04:38:59;;;;;;;18.17;14.07;;;15.10;99.90;;;;;;4981147;28;20069;-80
2021/06/24 04:41:27;;;;;;;17.13;14.32;;;15.10;99.90;;;;;;5010747;28;20050;-80
2021/06/24 04:44:03;;;;;;;21.77;15.50;;;14.90;99.90;;;;;;4982603;28;20050;-82
2021/06/24 04:46:33;;;;;;;17.15;13.98;;;14.90;99.90;;;;;;4967128;28;20046;-83
2021/06/24 04:49:03;;;;;;;23.88;15.35;;;14.80;99.90;;;;;;4978355;28;20608;-79
2021/06/24 04:52:00;;;;;;;22.17;14.32;;;14.80;99.90;;;;;;4970142;28;20065;-80
2021/06/24 04:54:37;;;;;;;20.80;14.25;;;14.70;99.90;;;;;;4981471;28;20103;-79
2021/06/24 04:57:05;;;;;;;18.17;14.52;;;14.70;99.90;;;;;;4996790;28;20050;-79
2021/06/24 05:00:08;;;;;;;25.35;15.30;;;14.60;99.90;;;;;;4995923;28;20049;-79
2021/06/24 05:03:02;;;;;;;22.98;14.20;;;14.80;99.90;;;;;;4982937;28;20129;-80
2021/06/24 05:05:41;;;;;;;23.70;14.55;;;14.90;99.90;;;;;;4981290;28;20104;-79
2021/06/24 05:08:13;;;;;;;23.60;15.27;;;14.80;99.90;;;;;;4995310;28;20161;-78
2021/06/24 05:10:40;;;;;;;22.75;14.35;;;14.80;99.90;;;;;;4995395;28;20061;-80
2021/06/24 05:13:07;;;;;;;20.58;14.43;;;14.80;99.90;;;;;;4996862;28;20074;-81
2021/06/24 05:15:35;;;;;;;22.33;15.18;;;14.70;99.90;;;;;;4980364;28;20606;-79
2021/06/24 05:18:07;;;;;;;26.77;16.17;;;14.80;99.90;;;;;;4998269;28;20101;-79
2021/06/24 05:20:34;;;;;;;25.23;16.17;;;14.90;99.90;;;;;;5002850;28;20048;-79
2021/06/24 05:23:01;;;;;;;25.38;15.45;;;15.00;99.90;;;;;;4985576;28;20041;-79
2021/06/24 05:25:28;;;;;;;23.83;15.43;;;15.00;99.90;;;;;;5007345;28;20073;-81
2021/06/24 05:27:55;;;;;;;23.95;14.65;;;15.00;99.90;;;;;;4973739;28;20073;-80
2021/06/24 05:30:23;;;;;;;23.50;15.13;;;15.10;99.90;;;;;;5003808;28;20054;-79
2021/06/24 05:32:50;;;;;;;25.05;15.77;;;14.90;99.90;;;;;;4995824;28;20126;-80
2021/06/24 05:35:17;;;;;;;26.67;16.00;;;15.00;99.90;;;;;;4956961;28;20140;-81
2021/06/24 05:37:44;;;;;;;25.42;15.77;;;14.90;99.90;;;;;;4982608;28;20046;-81
2021/06/24 05:40:11;;;;;;;26.13;15.65;;;14.90;99.90;;;;;;4996609;28;20046;-80
2021/06/24 05:42:39;;;;;;;18.98;15.23;;;14.90;99.90;;;;;;5002328;28;20062;-79
2021/06/24 05:45:09;;;;;;;20.10;15.00;;;15.10;99.90;;;;;;4989416;28;20077;-80
2021/06/24 05:47:36;;;;;;;20.75;15.73;;;15.10;99.90;;;;;;4989590;28;20065;-81
2021/06/24 05:50:03;;;;;;;24.77;17.17;;;15.20;99.90;;;;;;4990844;28;20046;-82
2021/06/24 05:52:30;;;;;;;21.00;16.20;;;15.40;99.90;;;;;;4999702;28;20049;-80
2021/06/24 05:54:57;;;;;;;24.08;16.15;;;15.60;99.90;;;;;;4977555;28;20077;-80
2021/06/24 05:57:26;;;;;;;22.70;15.30;;;15.60;99.90;;;;;;4965389;28;20037;-80
2021/06/24 05:59:55;;;;;;;19.77;16.20;;;15.60;99.90;;;;;;4975562;28;20049;-81
2021/06/24 06:02:22;;;;;;;21.02;15.50;;;15.80;99.90;;;;;;4993410;28;20725;-81
2021/06/24 06:04:49;;;;;;;23.27;16.67;;;15.90;99.90;;;;;;4975762;28;20548;-79
2021/06/24 06:07:16;;;;;;;20.58;15.15;;;15.80;99.90;;;;;;4984575;28;20476;-79
2021/06/24 06:09:43;;;;;;;23.55;15.50;;;15.60;99.90;;;;;;4983039;28;20049;-79
2021/06/24 06:12:10;;;;;;;23.08;15.32;;;15.40;99.90;;;;;;4996030;28;20052;-79
2021/06/24 06:14:37;;;;;;;23.52;16.70;;;15.50;99.90;;;;;;4981114;28;20050;-80
2021/06/24 06:17:03;;;;;;;23.60;16.77;;;15.70;99.90;;;;;;4984499;28;20104;-80
2021/06/24 06:19:30;;;;;;;19.88;15.27;;;15.80;99.90;;;;;;4993140;28;20096;-81
2021/06/24 06:21:57;;;;;;;24.17;16.58;;;15.80;99.90;;;;;;5001044;28;20081;-81
2021/06/24 06:24:24;;;;;;;23.33;15.77;;;15.80;99.90;;;;;;4981977;28;20045;-81
2021/06/24 06:26:51;;;;;;;21.52;15.55;;;16.00;99.90;;;;;;4980238;28;20046;-79
2021/06/24 06:29:18;;;;;;;20.52;15.80;;;16.10;99.90;;;;;;4977531;28;20050;-81
2021/06/24 06:31:45;;;;;;;24.20;17.50;;;16.30;99.90;;;;;;4961104;28;20512;-81
2021/06/24 06:34:12;;;;;;;21.83;16.90;;;16.50;99.90;;;;;;4976343;28;20042;-81
2021/06/24 06:36:39;;;;;;;23.73;18.50;;;16.60;99.90;;;;;;4972620;28;20078;-81
2021/06/24 06:39:06;;;;;;;19.60;17.40;;;16.60;99.90;;;;;;4977063;28;20408;-79
2021/06/24 06:41:33;;;;;;;25.08;16.48;;;16.60;99.90;;;;;;5012291;28;20515;-80
2021/06/24 06:44:00;;;;;;;18.48;16.02;;;16.50;99.90;;;;;;4976356;28;20077;-80
2021/06/24 06:46:27;;;;;;;18.55;15.85;;;16.30;99.90;;;;;;4991670;28;20050;-79
2021/06/24 06:48:54;;;;;;;25.45;16.90;;;16.10;99.90;;;;;;4983150;28;20030;-80
2021/06/24 06:51:24;;;;;;;23.88;17.45;;;15.80;99.90;;;;;;4985964;28;20077;-79
2021/06/24 06:53:51;;;;;;;23.90;16.85;;;15.80;99.90;;;;;;4976635;28;20046;-80
2021/06/24 06:56:19;;;;;;;22.85;16.80;;;15.80;99.90;;;;;;4976466;28;20042;-80
2021/06/24 06:58:46;;;;;;;18.98;16.40;;;15.90;99.90;;;;;;4977290;28;20038;-80
2021/06/24 07:01:13;;;;;;;21.45;16.38;;;15.70;99.90;;;;;;4989591;28;20053;-79
2021/06/24 07:03:40;;;;;;;22.00;16.48;;;15.80;99.90;;;;;;4977348;28;20057;-79
2021/06/24 07:06:07;;;;;;;22.58;17.00;;;15.70;99.90;;;;;;4989930;28;20046;-80
2021/06/24 07:08:33;;;;;;;20.20;15.50;;;15.70;99.90;;;;;;4957350;28;20148;-80
2021/06/24 07:11:00;;;;;;;22.05;16.80;;;16.00;99.90;;;;;;4977395;28;20045;-81
2021/06/24 07:13:27;;;;;;;25.40;16.65;;;16.10;99.90;;;;;;4978691;28;20076;-80
2021/06/24 07:15:56;;;;;;;24.00;17.48;;;16.40;99.90;;;;;;4992309;28;20050;-79
2021/06/24 07:18:24;;;;;;;25.42;18.30;;;16.50;99.90;;;;;;4993102;28;20145;-79
2021/06/24 07:20:56;;;;;;;23.67;17.85;;;16.50;99.90;;;;;;4982810;28;20461;-80
2021/06/24 07:23:23;;;;;;;20.00;18.00;;;16.20;99.90;;;;;;4991546;28;20042;-79
2021/06/24 07:25:50;;;;;;;25.17;18.33;;;16.10;99.90;;;;;;4974092;28;20045;-81
2021/06/24 07:28:17;;;;;;;23.08;18.58;;;16.00;99.90;;;;;;4991919;28;20085;-79
2021/06/24 07:30:44;;;;;;;23.52;18.13;;;15.90;99.90;;;;;;4975431;28;20132;-81
2021/06/24 07:33:11;;;;;;;24.35;18.83;;;16.00;99.90;;;;;;5017595;28;20061;-79
2021/06/24 07:35:42;;;;;;;21.00;18.77;;;16.00;99.90;;;;;;5004017;28;20053;-79
2021/06/24 07:38:14;;;;;;;22.50;19.55;;;16.10;99.90;;;;;;5002802;28;20066;-80
2021/06/24 07:40:41;;;;;;;23.25;20.60;;;16.30;99.90;;;;;;4977570;28;20053;-79
2021/06/24 07:43:08;;;;;;;23.45;21.05;;;16.40;99.90;;;;;;4999228;28;20070;-79
2021/06/24 07:45:36;;;;;;;26.80;21.10;;;16.40;99.90;;;;;;5017361;28;20061;-80
2021/06/24 07:48:06;;;;;;;25.15;19.88;;;16.20;99.90;;;;;;4992693;28;20057;-81
2021/06/24 07:50:34;;;;;;;28.15;21.30;;;16.20;99.90;;;;;;4983518;28;20050;-80
2021/06/24 07:53:01;;;;;;;28.35;21.60;;;16.40;99.90;;;;;;4978110;28;20137;-78
2021/06/24 07:55:34;;;;;;;24.08;21.75;;;16.60;99.90;;;;;;4972520;28;20042;-82
2021/06/24 07:58:03;;;;;;;26.67;22.38;;;16.60;99.90;;;;;;4972586;28;20045;-80
2021/06/24 08:00:33;;;;;;;29.48;22.55;;;16.70;99.90;;;;;;4960572;28;20154;-81
2021/06/24 08:03:01;;;;;;;26.25;23.45;;;16.70;99.90;;;;;;4989860;28;20030;-80
2021/06/24 08:05:28;;;;;;;28.67;24.52;;;16.90;99.90;;;;;;4958447;28;20046;-81
2021/06/24 08:07:56;;;;;;;24.65;22.15;;;17.10;99.90;;;;;;4975895;28;20096;-80
2021/06/24 08:10:23;;;;;;;27.83;25.20;;;17.40;99.90;;;;;;4989012;28;20056;-79
2021/06/24 08:12:50;;;;;;;27.80;25.08;;;17.50;99.90;;;;;;5010795;28;20049;-79
2021/06/24 08:15:18;;;;;;;26.23;23.73;;;17.50;99.90;;;;;;5008365;28;20655;-81
2021/06/24 08:17:46;;;;;;;27.27;24.67;;;17.60;99.90;;;;;;4993934;28;20080;-80
2021/06/24 08:20:15;;;;;;;28.95;26.02;;;17.30;99.90;;;;;;4968050;28;20084;-79
2021/06/24 08:22:42;;;;;;;30.35;26.33;;;16.90;99.90;;;;;;4990417;28;20490;-80
2021/06/24 08:25:10;;;;;;;28.05;25.02;;;16.80;99.90;;;;;;4989940;28;20662;-81
2021/06/24 08:27:38;;;;;;;29.00;26.27;;;17.10;99.90;;;;;;4955750;28;20513;-79
2021/06/24 08:30:07;;;;;;;31.20;27.15;;;17.10;99.90;;;;;;4976102;28;20057;-82
2021/06/24 08:32:37;;;;;;;30.75;27.92;;;17.20;99.90;;;;;;4993441;28;20050;-81
2021/06/24 08:35:07;;;;;;;31.70;28.38;;;17.60;99.90;;;;;;4958741;28;20050;-81
2021/06/24 08:37:34;;;;;;;33.22;29.92;;;17.60;99.90;;;;;;4977841;28;20065;-79
2021/06/24 08:40:01;;;;;;;35.20;31.83;;;17.70;99.90;;;;;;4978628;28;20034;-78
2021/06/24 08:42:28;;;;;;;34.90;31.15;;;17.60;99.90;;;;;;4990134;28;20042;-80
2021/06/24 08:44:55;;;;;;;36.13;32.72;;;17.70;99.90;;;;;;4976216;28;20539;-81
2021/06/24 08:47:23;;;;;;;34.65;31.17;;;17.60;99.90;;;;;;4991123;28;20053;-80
2021/06/24 08:49:52;;;;;;;39.08;35.05;;;18.00;99.90;;;;;;4980029;28;20042;-78
2021/06/24 08:52:21;;;;;;;36.50;33.15;;;17.80;99.90;;;;;;4992986;28;20051;-80
2021/06/24 08:54:48;;;;;;;36.80;32.90;;;17.80;99.90;;;;;;4955450;28;20069;-80
2021/06/24 08:57:15;;;;;;;38.53;33.63;;;18.20;99.90;;;;;;4938257;28;20388;-80
2021/06/24 08:59:43;;;;;;;36.40;32.83;;;18.10;99.90;;;;;;4958493;28;20425;-79
2021/06/24 09:02:13;;;;;;;34.95;31.42;;;17.90;99.90;;;;;;4968389;28;20803;-81
2021/06/24 09:04:49;;;;;;;36.17;32.63;;;18.20;99.90;;;;;;4957305;28;20053;-80
2021/06/24 09:07:21;;;;;;;34.17;30.95;;;18.20;99.90;;;;;;4940110;28;20050;-82
2021/06/24 09:09:56;;;;;;;34.65;31.50;;;18.40;99.90;;;;;;4956764;28;20105;-80
2021/06/24 09:12:25;;;;;;;36.05;32.25;;;18.50;99.90;;;;;;4973258;28;20062;-80
2021/06/24 09:14:59;;;;;;;34.45;31.13;;;18.70;99.90;;;;;;4991652;28;20049;-79
2021/06/24 09:17:42;;;;;;;36.03;32.53;;;18.30;99.90;;;;;;4975271;28;20146;-80
2021/06/24 09:20:18;;;;;;;34.33;31.13;;;18.00;99.90;;;;;;5004548;28;20046;-80
2021/06/24 09:23:14;;;;;;;36.15;32.75;;;18.10;99.90;;;;;;5032316;28;20848;-81
2021/06/24 09:25:49;;;;;;;36.70;33.05;;;18.00;99.90;;;;;;5025543;28;20416;-81
2021/06/24 09:28:16;;;;;;;37.97;33.87;;;17.80;99.90;;;;;;4996913;28;20263;-80
2021/06/24 09:30:44;;;;;;;37.50;34.10;;;17.50;99.90;;;;;;4983420;28;20346;-79
2021/06/24 09:33:16;;;;;;;35.80;32.03;;;17.60;99.90;;;;;;4984248;28;20063;-80
2021/06/24 09:35:56;;;;;;;36.95;32.65;;;17.60;99.90;;;;;;5011651;28;20037;-80
2021/06/24 09:38:23;;;;;;;34.10;31.10;;;17.40;99.90;;;;;;4986930;28;20072;-80
2021/06/24 09:40:55;;;;;;;32.20;28.88;;;17.40;99.90;;;;;;4998560;28;20038;-80
2021/06/24 09:43:27;;;;;;;32.83;29.63;;;17.80;99.90;;;;;;5003798;28;20140;-80
2021/06/24 09:46:15;;;;;;;34.75;30.65;;;18.40;99.90;;;;;;5008760;28;20025;-80
2021/06/24 09:48:51;;;;;;;34.08;30.73;;;18.60;99.90;;;;;;5018599;28;20084;-80
2021/06/24 09:51:31;;;;;;;32.05;28.80;;;18.20;99.90;;;;;;4988322;28;20266;-78
2021/06/24 09:54:17;;;;;;;31.92;28.73;;;17.80;99.90;;;;;;4978473;28;20465;-79
2021/06/24 09:56:52;;;;;;;31.77;28.73;;;17.40;99.90;;;;;;4977841;28;20080;-80
2021/06/24 09:59:19;;;;;;;31.70;28.48;;;17.60;99.90;;;;;;5011556;28;20050;-81
2021/06/24 10:01:48;;;;;;;31.23;28.17;;;17.80;99.90;;;;;;4997940;28;21111;-81
2021/06/24 10:04:31;;;;;;;31.27;28.33;;;17.80;99.90;;;;;;4965099;28;20030;-80
2021/06/24 10:07:00;;;;;;;32.28;28.80;;;17.70;99.90;;;;;;4997372;28;20048;-79
2021/06/24 10:09:29;;;;;;;30.23;27.58;;;17.70;99.90;;;;;;4999736;28;20111;-80
2021/06/24 10:11:57;;;;;;;31.15;27.90;;;17.80;99.90;;;;;;5006896;28;20112;-81
2021/06/24 10:14:24;;;;;;;30.77;27.67;;;17.80;99.90;;;;;;5016668;28;20108;-80
2021/06/24 10:16:53;;;;;;;32.47;27.67;;;18.00;99.90;;;;;;5017153;28;20049;-80
2021/06/24 10:19:29;;;;;;;32.05;28.85;;;18.30;99.90;;;;;;5029173;28;20736;-80
2021/06/24 10:22:22;;;;;;;29.80;26.85;;;18.10;99.90;;;;;;4995631;28;20567;-80
2021/06/24 10:24:59;;;;;;;31.52;28.52;;;18.40;99.90;;;;;;4992190;28;20057;-79
2021/06/24 10:27:32;;;;;;;30.90;27.73;;;18.30;99.90;;;;;;4994701;28;20050;-81
2021/06/24 10:30:09;;;;;;;30.77;27.63;;;18.20;99.90;;;;;;4977689;28;20054;-81
2021/06/24 10:32:37;;;;;;;30.63;27.83;;;18.40;99.90;;;;;;4986870;28;20672;-81
2021/06/24 10:35:26;;;;;;;27.67;25.15;;;18.50;99.90;;;;;;5012271;28;20053;-80
2021/06/24 10:37:54;;;;;;;28.85;25.83;;;18.60;99.90;;;;;;4989209;28;20057;-83
2021/06/24 10:40:23;;;;;;;28.20;25.58;;;18.60;99.90;;;;;;4978054;28;20050;-80
2021/06/24 10:42:55;;;;;;;30.90;27.65;;;18.60;99.90;;;;;;4964766;28;20048;-81
2021/06/24 10:45:24;;;;;;;29.08;26.45;;;18.30;99.90;;;;;;4996002;28;20042;-82
2021/06/24 10:47:55;;;;;;;28.20;25.98;;;18.50;99.90;;;;;;4981311;28;20541;-81
2021/06/24 10:50:29;;;;;;;32.35;29.00;;;18.70;99.90;;;;;;4986116;28;20056;-82
2021/06/24 10:52:58;;;;;;;31.45;28.55;;;18.80;99.90;;;;;;5011052;28;20112;-81
2021/06/24 10:55:40;;;;;;;29.73;26.55;;;18.80;99.90;;;;;;4994015;28;20123;-80
2021/06/24 10:58:13;;;;;;;30.00;27.25;;;18.90;99.90;;;;;;4982547;28;20088;-80
2021/06/24 11:00:44;;;;;;;29.73;26.55;;;18.80;99.90;;;;;;4984386;28;20204;-82
2021/06/24 11:03:12;;;;;;;28.70;25.95;;;18.60;99.90;;;;;;4999452;28;20053;-82
2021/06/24 11:05:39;;;;;;;31.15;28.23;;;18.70;99.90;;;;;;5014822;28;20042;-79
2021/06/24 11:08:17;;;;;;;32.63;28.13;;;18.50;99.90;;;;;;4981691;28;20049;-81
2021/06/24 11:10:57;;;;;;;30.92;28.05;;;18.30;99.90;;;;;;5002692;28;20060;-81
2021/06/24 11:16:13;;;;;;;30.80;27.75;;;18.50;99.90;;;;;;5002853;28;20519;-81
2021/06/24 11:18:40;;;;;;;29.88;26.83;;;18.90;99.90;;;;;;4976965;28;20045;-80
2021/06/24 11:21:19;;;;;;;30.35;27.48;;;19.40;99.90;;;;;;4986984;28;20095;-79
2021/06/24 11:23:54;;;;;;;31.38;28.50;;;19.70;99.90;;;;;;4980143;28;20572;-79
2021/06/24 11:26:24;;;;;;;28.42;25.65;;;19.60;99.90;;;;;;4995738;28;20046;-81
2021/06/24 11:29:01;;;;;;;29.67;26.95;;;19.70;99.90;;;;;;4998229;28;20060;-80
2021/06/24 11:31:47;;;;;;;28.70;25.95;;;20.10;99.90;;;;;;5002694;28;20053;-80
2021/06/24 11:36:50;;;;;;;27.63;24.92;;;20.40;99.90;;;;;;5006180;28;20059;-81
2021/06/24 11:39:28;;;;;;;28.55;25.98;;;20.00;99.90;;;;;;4999025;28;20848;-82
2021/06/24 11:41:58;;;;;;;27.50;24.65;;;20.20;99.90;;;;;;4998205;28;20058;-79
2021/06/24 11:44:38;;;;;;;29.85;26.88;;;20.30;99.90;;;;;;5011230;28;20060;-78
2021/06/24 11:47:13;;;;;;;26.15;23.65;;;20.30;99.90;;;;;;5011315;28;20046;-80
2021/06/24 12:04:02;;;;;;;24.90;22.90;;;20.70;99.90;;;;;;5011243;28;20104;-81
2021/06/24 12:07:00;;;;;;;26.83;24.52;;;20.90;99.90;;;;;;4964368;28;20512;-80
2021/06/24 12:09:42;;;;;;;27.13;24.48;;;21.20;99.90;;;;;;4986594;28;20042;-79
2021/06/24 12:12:14;;;;;;;26.90;24.80;;;20.90;99.90;;;;;;4984531;28;20052;-79
2021/06/24 12:14:43;;;;;;;29.73;27.00;;;20.50;99.90;;;;;;5020060;28;20575;-81
2021/06/24 12:17:20;;;;;;;27.83;25.17;;;19.90;99.90;;;;;;5025430;28;20045;-80
2021/06/24 12:19:55;;;;;;;26.60;24.33;;;19.70;99.90;;;;;;4992019;28;20052;-80
2021/06/24 12:22:52;;;;;;;27.20;24.58;;;19.60;99.90;;;;;;5012278;28;20533;-82
2021/06/24 12:25:22;;;;;;;27.13;24.63;;;19.70;99.90;;;;;;4979209;28;20046;-82
2021/06/24 12:27:51;;;;;;;26.70;24.17;;;19.50;99.90;;;;;;5015445;28;20560;-81
2021/06/24 12:30:23;;;;;;;29.30;26.40;;;19.70;99.90;;;;;;4982230;28;20038;-81
2021/06/24 12:33:03;;;;;;;34.03;30.83;;;19.70;99.90;;;;;;5000355;28;20138;-82
2021/06/24 12:35:40;;;;;;;30.13;27.13;;;19.60;99.90;;;;;;4992455;28;20074;-82
2021/06/24 12:38:13;;;;;;;31.15;27.45;;;19.40;99.90;;;;;;4957890;28;20046;-81
2021/06/24 12:40:43;;;;;;;30.90;28.00;;;19.30;99.90;;;;;;4977520;28;20061;-80
2021/06/24 12:43:17;;;;;;;30.20;27.33;;;19.20;99.90;;;;;;4980336;28;20042;-81
2021/06/24 12:45:49;;;;;;;31.67;28.70;;;19.10;99.90;;;;;;4989337;28;20470;-81
2021/06/24 12:48:24;;;;;;;32.40;29.42;;;19.00;99.90;;;;;;5026751;28;20416;-81
2021/06/24 12:50:51;;;;;;;34.67;30.63;;;18.80;99.90;;;;;;4995845;28;20045;-82
2021/06/24 12:53:37;;;;;;;37.70;31.23;;;18.90;99.90;;;;;;4981491;28;20038;-81
2021/06/24 12:56:21;;;;;;;36.58;29.42;;;18.70;99.90;;;;;;4987567;28;20046;-81
2021/06/24 12:58:49;;;;;;;34.58;30.58;;;18.50;99.90;;;;;;4999867;28;20107;-80
2021/06/24 13:01:18;;;;;;;41.53;31.80;;;18.30;99.90;;;;;;4970463;28;20137;-82
2021/06/24 13:03:54;;;;;;;37.88;29.58;;;18.10;99.90;;;;;;4999127;28;20072;-82
2021/06/24 13:06:27;;;;;;;40.90;31.80;;;18.00;99.90;;;;;;4964281;28;20057;-80